Stokes, Minnesota
Current Conditions -  °F | °C
As of 7:53 PM on Friday 24 Oct 2014 (Local Time) from KFOZ Reporting Station
Clear Clear  
Wind Chill: 64°   Ceiling: Unl
Heat Index: 64°   Visibility: 10mi
Dew Point: 39°   Wind: 10mph
Humidity: 40%   Direction: 260°W
Pressure: 29.75"   Gusts: 21mph
Location:  47.7637°N, 93.7058°W
Report Text: KFOZ 250053Z AUTO 26009G18KT 233V293 10SM CLR 18/04 A2975 RMK AO2 TSNO
Loading
Personal Weather Stations






























Interactive Weather Map
Tropical Storm Tracking
New forecast layout! Learn more

10-Day Weather Forecast

Advertisements
Track Severe Weather on mobile